| time (UTC) | temp C | wind direction | speed KPH | gust KPH | rain 1hr cm | rain 24hr cm | rain mn cm | humidity % | barometer mb |
| 20260507202735 | 31 | 335 | 1.6 | 1.6 | 0.00 | 0.00 | 1.96 | 73 | 1008.0 |
| 20260507202233 | 31 | 335 | 1.6 | 1.6 | 0.00 | 0.00 | 1.96 | 74 | 1008.0 |
| 20260507201733 | 31 | 335 | 1.6 | 1.6 | 0.00 | 0.00 | 1.96 | 73 | 1008.0 |
| 20260507201233 | 31 | 335 | 1.6 | 1.6 | 0.00 | 0.00 | 1.96 | 73 | 1008.0 |
| 20260507200733 | 31 | 335 | 1.6 | 1.6 | 0.00 | 0.00 | 1.96 | 73 | 1009.0 |
| 20260507200233 | 31 | 335 | 1.6 | 1.6 | 0.00 | 0.00 | 1.96 | 74 | 1009.0 |
| 20260507195734 | 31 | 335 | 1.6 | 1.6 | 0.00 | 0.00 | 1.96 | 73 | 1009.0 |
| 20260507195233 | 31 | 335 | 1.6 | 1.6 | 0.00 | 0.00 | 1.96 | 72 | 1009.0 |
| 20260507194733 | 31 | 335 | 1.6 | 1.6 | 0.00 | 0.00 | 1.96 | 72 | 1009.0 |
| 20260507194233 | 31 | 335 | 1.6 | 1.6 | 0.00 | 0.00 | 1.96 | 74 | 1009.0 |
| 20260507193736 | 31 | 335 | 1.6 | 1.6 | 0.00 | 0.00 | 1.96 | 75 | 1009.0 |
| 20260507193234 | 31 | 335 | 1.6 | 1.6 | 0.00 | 0.00 | 1.96 | 74 | 1009.0 |
| 20260507192733 | 31 | 335 | 1.6 | 1.6 | 0.00 | 0.00 | 1.96 | 74 | 1009.0 |
| 20260507192233 | 31 | 335 | 1.6 | 1.6 | 0.00 | 0.00 | 1.96 | 74 | 1010.0 |
| 20260507191733 | 31 | 335 | 1.6 | 1.6 | 0.00 | 0.00 | 1.96 | 74 | 1009.0 |
| 20260507191234 | 31 | 335 | 1.6 | 1.6 | 0.00 | 0.00 | 1.96 | 75 | 1010.0 |
| 20260507190734 | 31 | 335 | 1.6 | 1.6 | 0.00 | 0.00 | 1.96 | 74 | 1010.0 |
| 20260507190234 | 31 | 335 | 1.6 | 1.6 | 0.00 | 0.00 | 1.96 | 74 | 1010.0 |
| 20260507185733 | 31 | 335 | 1.6 | 1.6 | 0.00 | 0.00 | 1.96 | 74 | 1010.0 |
| 20260507185233 | 31 | 335 | 1.6 | 1.6 | 0.00 | 0.00 | 1.96 | 75 | 1010.0 |
| 20260507184733 | 31 | 335 | 1.6 | 1.6 | 0.00 | 0.00 | 1.96 | 74 | 1010.0 |
| 20260507184234 | 31 | 335 | 1.6 | 1.6 | 0.00 | 0.00 | 1.96 | 74 | 1011.0 |
| 20260507183733 | 31 | 335 | 1.6 | 1.6 | 0.00 | 0.00 | 1.96 | 74 | 1011.0 |
| 20260507183234 | 31 | 335 | 1.6 | 1.6 | 0.00 | 0.00 | 1.96 | 73 | 1010.0 |
| 20260507182734 | 31 | 335 | 1.6 | 1.6 | 0.00 | 0.00 | 1.96 | 73 | 1011.0 |
| 20260507182234 | 32 | 335 | 1.6 | 1.6 | 0.00 | 0.00 | 1.96 | 74 | 1011.0 |
| 20260507181733 | 32 | 335 | 1.6 | 1.6 | 0.00 | 0.00 | 1.96 | 74 | 1011.0 |
| 20260507181233 | 31 | 335 | 1.6 | 1.6 | 0.00 | 0.00 | 1.96 | 76 | 1011.0 |
| 20260507180734 | 30 | 335 | 1.6 | 1.6 | 0.00 | 0.00 | 1.96 | 76 | 1012.0 |
| 20260507180233 | 30 | 335 | 1.6 | 1.6 | 0.00 | 0.00 | 1.96 | 76 | 1012.0 |
| 20260507175733 | 30 | 335 | 1.6 | 1.6 | 0.00 | 0.00 | 1.96 | 76 | 1012.0 |
| 20260507175236 | 30 | 335 | 1.6 | 1.6 | 0.00 | 0.00 | 1.96 | 76 | 1012.0 |
| 20260507174734 | 30 | 335 | 1.6 | 1.6 | 0.00 | 0.00 | 1.96 | 75 | 1012.0 |
| 20260507174234 | 31 | 335 | 1.6 | 1.6 | 0.00 | 0.00 | 1.96 | 74 | 1012.0 |
| 20260507173733 | 31 | 335 | 1.6 | 1.6 | 0.00 | 0.00 | 1.96 | 76 | 1012.0 |
| 20260507173234 | 31 | 335 | 1.6 | 1.6 | 0.00 | 0.00 | 1.96 | 77 | 1013.0 |
| 20260507172734 | 30 | 335 | 1.6 | 1.6 | 0.00 | 0.00 | 1.96 | 78 | 1013.0 |
| 20260507172233 | 30 | 335 | 1.6 | 1.6 | 0.00 | 0.00 | 1.96 | 78 | 1013.0 |
| 20260507171734 | 30 | 335 | 1.6 | 1.6 | 0.00 | 0.00 | 1.96 | 79 | 1013.0 |
| 20260507171234 | 30 | 335 | 1.6 | 1.6 | 0.00 | 0.00 | 1.96 | 78 | 1013.0 |
| 20260507170733 | 30 | 335 | 1.6 | 1.6 | 0.00 | 0.00 | 1.96 | 79 | 1013.0 |
| 20260507170234 | 30 | 335 | 1.6 | 1.6 | 0.00 | 0.00 | 1.96 | 79 | 1013.0 |
| 20260507165734 | 30 | 335 | 1.6 | 1.6 | 0.00 | 0.00 | 1.96 | 80 | 1014.0 |
| 20260507165234 | 30 | 335 | 1.6 | 1.6 | 0.00 | 0.00 | 1.96 | 81 | 1014.0 |
| 20260507164734 | 29 | 335 | 1.6 | 1.6 | 0.00 | 0.00 | 1.96 | 82 | 1014.0 |
| 20260507164234 | 28 | 335 | 1.6 | 1.6 | 0.00 | 0.00 | 1.96 | 82 | 1014.0 |
| 20260507163734 | 28 | 335 | 1.6 | 1.6 | 0.00 | 0.00 | 1.96 | 84 | 1014.0 |
| 20260507163233 | 28 | 335 | 1.6 | 1.6 | 0.00 | 0.00 | 1.96 | 84 | 1014.0 |
| 20260507162733 | 28 | 335 | 1.6 | 1.6 | 0.00 | 0.00 | 1.96 | 85 | 1014.0 |
| 20260507162234 | 27 | 335 | 1.6 | 1.6 | 0.00 | 0.00 | 1.96 | 84 | 1014.0 |
| 20260507161733 | 27 | 335 | 1.6 | 1.6 | 0.00 | 0.00 | 1.96 | 84 | 1015.0 |
| 20260507161233 | 27 | 335 | 1.6 | 1.6 | 0.00 | 0.00 | 1.96 | 84 | 1014.0 |
| 20260507160734 | 27 | 335 | 1.6 | 1.6 | 0.00 | 0.00 | 1.96 | 84 | 1015.0 |
| 20260507160233 | 28 | 335 | 1.6 | 1.6 | 0.00 | 0.00 | 1.96 | 83 | 1015.0 |
| 20260507155734 | 28 | 335 | 1.6 | 1.6 | 0.00 | 0.00 | 1.96 | 83 | 1014.0 |
| 20260507155233 | 28 | 335 | 1.6 | 1.6 | 0.00 | 0.00 | 1.96 | 84 | 1015.0 |
| 20260507154734 | 28 | 335 | 1.6 | 1.6 | 0.00 | 0.00 | 1.96 | 86 | 1014.0 |
| 20260507154234 | 28 | 335 | 1.6 | 1.6 | 0.00 | 0.00 | 1.96 | 86 | 1015.0 |
| 20260507153733 | 27 | 335 | 1.6 | 1.6 | 0.00 | 0.00 | 1.96 | 87 | 1015.0 |
| 20260507153233 | 27 | 335 | 1.6 | 1.6 | 0.00 | 0.00 | 1.96 | 88 | 1015.0 |
| 20260507152734 | 27 | 335 | 1.6 | 1.6 | 0.00 | 0.00 | 1.96 | 88 | 1015.0 |
| 20260507152234 | 26 | 335 | 1.6 | 1.6 | 0.00 | 0.00 | 1.96 | 89 | 1015.0 |
| 20260507151733 | 26 | 335 | 1.6 | 1.6 | 0.00 | 0.00 | 1.96 | 89 | 1015.0 |
| 20260507151234 | 26 | 335 | 1.6 | 1.6 | 0.00 | 0.00 | 1.96 | 90 | 1015.0 |
| 20260507150734 | 26 | 335 | 1.6 | 1.6 | 0.00 | 0.00 | 1.96 | 91 | 1016.0 |
| 20260507150233 | 26 | 335 | 1.6 | 1.6 | 0.00 | 0.00 | 1.96 | 91 | 1016.0 |
| 20260507145734 | 26 | 335 | 1.6 | 1.6 | 0.00 | 0.00 | 1.96 | 91 | 1016.0 |
| 20260507145233 | 26 | 335 | 1.6 | 1.6 | 0.00 | 0.00 | 1.96 | 92 | 1016.0 |
| 20260507144733 | 26 | 335 | 1.6 | 1.6 | 0.00 | 0.00 | 1.96 | 93 | 1016.0 |
| 20260507144233 | 25 | 335 | 1.6 | 3.2 | 0.00 | 0.00 | 1.96 | 93 | 1016.0 |
| 20260507143733 | 25 | 163 | 3.2 | 4.8 | 0.00 | 0.00 | 1.96 | 93 | 1016.0 |
| 20260507143234 | 25 | 152 | 3.2 | 6.4 | 0.00 | 0.00 | 1.96 | 93 | 1016.0 |
| 20260507142734 | 25 | 68 | 0.0 | 3.2 | 0.00 | 0.00 | 1.96 | 94 | 1016.0 |
| 20260507142234 | 25 | 159 | 0.0 | 3.2 | 0.00 | 0.00 | 1.96 | 94 | 1016.0 |
| 20260507141734 | 25 | 196 | 4.8 | 4.8 | 0.00 | 0.00 | 1.96 | 94 | 1016.0 |
| 20260507141233 | 25 | 182 | 4.8 | 4.8 | 0.00 | 0.00 | 1.96 | 95 | 1016.0 |
| 20260507140734 | 25 | 169 | 3.2 | 4.8 | 0.00 | 0.00 | 1.96 | 95 | 1016.0 |
| 20260507140233 | 25 | 178 | 1.6 | 3.2 | 0.00 | 0.00 | 1.96 | 97 | 1016.0 |
| 20260507135733 | 24 | 255 | 0.0 | 4.8 | 0.00 | 0.00 | 1.96 | 97 | 1016.0 |
| 20260507135233 | 24 | 277 | 0.0 | 4.8 | 0.00 | 0.00 | 1.96 | 97 | 1016.0 |
| 20260507134734 | 23 | 357 | 4.8 | 4.8 | 0.00 | 0.00 | 1.96 | 97 | 1016.0 |
| 20260507134233 | 23 | 247 | 0.0 | 4.8 | 0.00 | 0.00 | 1.96 | 97 | 1016.0 |
| 20260507133733 | 23 | 323 | 0.0 | 3.2 | 0.00 | 0.00 | 1.96 | 98 | 1016.0 |
| 20260507133234 | 23 | 167 | 0.0 | 1.6 | 0.00 | 0.00 | 1.96 | 98 | 1016.0 |
| 20260507132733 | 23 | 238 | 0.0 | 3.2 | 0.00 | 0.00 | 1.96 | 98 | 1016.0 |
| 20260507132233 | 23 | 0 | 0.0 | 3.2 | 0.00 | 0.00 | 1.96 | 98 | 1016.0 |
| 20260507131734 | 23 | 296 | 0.0 | 4.8 | 0.00 | 0.00 | 1.96 | 98 | 1016.0 |
| 20260507131234 | 23 | 346 | 3.2 | 3.2 | 0.00 | 0.00 | 1.96 | 98 | 1016.0 |
| 20260507130734 | 23 | 46 | 0.0 | 3.2 | 0.00 | 0.00 | 1.96 | 98 | 1016.0 |
| 20260507130237 | 23 | 58 | 0.0 | 4.8 | 0.00 | 0.00 | 1.96 | 98 | 1016.0 |
| 20260507125734 | 23 | 31 | 0.0 | 3.2 | 0.00 | 0.00 | 1.96 | 98 | 1016.0 |
| 20260507125234 | 23 | 88 | 0.0 | 1.6 | 0.00 | 0.00 | 1.96 | 98 | 1015.0 |
| 20260507124734 | 23 | 142 | 0.0 | 3.2 | 0.00 | 0.00 | 1.96 | 98 | 1015.0 |
| 20260507124234 | 23 | 307 | 1.6 | 4.8 | 0.00 | 0.00 | 1.96 | 98 | 1015.0 |
| 20260507123733 | 22 | 48 | 0.0 | 3.2 | 0.00 | 0.00 | 1.96 | 99 | 1015.0 |
| 20260507123233 | 22 | 40 | 0.0 | 3.2 | 0.05 | 0.00 | 1.96 | 98 | 1015.0 |
| 20260507122733 | 22 | 40 | 0.0 | 1.6 | 0.00 | 0.00 | 1.96 | 98 | 1015.0 |
| 20260507122233 | 22 | 175 | 0.0 | 1.6 | 0.05 | 0.00 | 1.96 | 98 | 1015.0 |
| 20260507121734 | 22 | 84 | 0.0 | 3.2 | 0.05 | 0.00 | 1.96 | 98 | 1015.0 |
| 20260507121234 | 22 | 304 | 0.0 | 1.6 | 0.00 | 0.00 | 1.93 | 98 | 1015.0 |
| 20260507120733 | 22 | 291 | 0.0 | 1.6 | 0.00 | 0.00 | 1.93 | 98 | 1015.0 |
| 20260507120234 | 22 | 132 | 0.0 | 1.6 | 0.00 | 0.00 | 1.93 | 98 | 1015.0 |
| 20260507115733 | 22 | 204 | 0.0 | 0.0 | 0.00 | 0.00 | 1.93 | 98 | 1015.0 |
| 20260507115233 | 22 | 53 | 0.0 | 0.0 | 0.05 | 0.00 | 1.93 | 98 | 1015.0 |
| 20260507114733 | 22 | 51 | 0.0 | 1.6 | 0.13 | 0.00 | 1.93 | 98 | 1015.0 |
| 20260507114233 | 22 | 156 | 0.0 | 1.6 | 0.13 | 0.00 | 1.93 | 98 | 1015.0 |
| 20260507113733 | 22 | 89 | 0.0 | 1.6 | 0.23 | 0.00 | 1.93 | 98 | 1014.0 |
| 20260507113234 | 22 | 84 | 0.0 | 1.6 | 0.18 | 0.00 | 1.91 | 98 | 1015.0 |
| 20260507112735 | 22 | 63 | 1.6 | 3.2 | 0.13 | 0.00 | 1.88 | 98 | 1014.0 |
| 20260507112233 | 22 | 146 | 1.6 | 3.2 | 0.05 | 0.00 | 1.88 | 98 | 1014.0 |
| 20260507111735 | 22 | 168 | 0.0 | 3.2 | 0.00 | 0.00 | 1.85 | 98 | 1014.0 |
| 20260507111234 | 22 | 188 | 0.0 | 3.2 | 0.00 | 0.00 | 1.85 | 98 | 1014.0 |
| 20260507110734 | 22 | 134 | 3.2 | 3.2 | 0.00 | 0.00 | 1.85 | 98 | 1014.0 |
| 20260507110234 | 22 | 84 | 1.6 | 3.2 | 0.00 | 0.00 | 1.85 | 98 | 1014.0 |
| 20260507105733 | 22 | 70 | 0.0 | 1.6 | 0.00 | 0.00 | 1.85 | 98 | 1014.0 |
| 20260507105233 | 22 | 80 | 1.6 | 3.2 | 0.00 | 0.00 | 1.85 | 98 | 1014.0 |
| 20260507104734 | 22 | 73 | 1.6 | 3.2 | 0.00 | 0.00 | 1.85 | 98 | 1014.0 |
| 20260507104233 | 22 | 81 | 1.6 | 1.6 | 0.00 | 0.00 | 1.85 | 98 | 1014.0 |
| 20260507103733 | 22 | 62 | 1.6 | 1.6 | 0.00 | 0.00 | 1.85 | 98 | 1014.0 |
| 20260507103235 | 22 | 112 | 0.0 | 3.2 | 0.00 | 0.00 | 1.85 | 98 | 1014.0 |
| 20260507102733 | 22 | 126 | 0.0 | 3.2 | 0.05 | 0.00 | 1.85 | 98 | 1014.0 |
| 20260507102233 | 22 | 167 | 1.6 | 1.6 | 0.05 | 0.00 | 1.85 | 98 | 1014.0 |
| 20260507101733 | 22 | 212 | 0.0 | 3.2 | 0.18 | 0.00 | 1.85 | 97 | 1014.0 |
| 20260507101234 | 22 | 82 | 1.6 | 1.6 | 0.36 | 0.00 | 1.85 | 97 | 1014.0 |
| 20260507100734 | 22 | 221 | 3.2 | 6.4 | 0.43 | 0.00 | 1.83 | 97 | 1014.0 |
| 20260507100233 | 22 | 176 | 3.2 | 3.2 | 0.36 | 0.00 | 1.78 | 97 | 1014.0 |
| 20260507095733 | 22 | 164 | 1.6 | 8.0 | 0.30 | 0.00 | 1.75 | 97 | 1014.0 |
| 20260507095234 | 22 | 227 | 0.0 | 6.4 | 0.30 | 0.00 | 1.73 | 97 | 1014.0 |
| 20260507094734 | 22 | 197 | 1.6 | 4.8 | 0.48 | 0.00 | 1.70 | 96 | 1014.0 |
| 20260507094233 | 22 | 226 | 3.2 | 4.8 | 0.43 | 0.00 | 1.68 | 96 | 1014.0 |
| 20260507093736 | 23 | 136 | 4.8 | 8.0 | 0.36 | 0.00 | 1.63 | 97 | 1014.0 |
| 20260507093233 | 23 | 118 | 3.2 | 11.3 | 0.36 | 0.00 | 1.60 | 96 | 1014.0 |
| 20260507092734 | 23 | 66 | 8.0 | 11.3 | 0.53 | 0.00 | 1.55 | 96 | 1014.0 |
| 20260507092234 | 23 | 81 | 9.7 | 14.5 | 0.66 | 0.00 | 1.52 | 97 | 1014.0 |
| 20260507091734 | 23 | 78 | 11.3 | 20.9 | 1.75 | 0.00 | 1.47 | 97 | 1014.0 |
| 20260507091233 | 23 | 36 | 9.7 | 11.3 | 5.23 | 0.00 | 1.42 | 97 | 1014.0 |
| 20260507090733 | 23 | 84 | 9.7 | 14.5 | 6.17 | 0.00 | 1.14 | 97 | 1014.0 |
| 20260507090233 | 23 | 77 | 16.1 | 22.5 | 2.82 | 0.00 | 0.48 | 97 | 1013.0 |
| 20260507085733 | 23 | 111 | 11.3 | 16.1 | 0.61 | 0.00 | 0.10 | 97 | 1013.0 |
| 20260507085233 | 23 | 140 | 14.5 | 19.3 | 0.05 | 0.00 | 0.00 | 97 | 1013.0 |
| 20260507084733 | 23 | 116 | 9.7 | 17.7 | 0.00 | 0.00 | 0.00 | 98 | 1013.0 |
| 20260507084234 | 23 | 115 | 6.4 | 16.1 | 0.00 | 0.00 | 0.00 | 98 | 1013.0 |
| 20260507083734 | 23 | 126 | 3.2 | 4.8 | 0.00 | 0.00 | 0.00 | 98 | 1013.0 |
| 20260507083233 | 23 | 122 | 0.0 | 1.6 | 0.00 | 0.00 | 0.00 | 98 | 1013.0 |
| 20260507082733 | 23 | 65 | 0.0 | 3.2 | 0.00 | 0.00 | 0.00 | 98 | 1013.0 |
| 20260507082233 | 23 | 125 | 0.0 | 0.0 | 0.00 | 0.00 | 0.00 | 98 | 1012.0 |
| 20260507081733 | 23 | 131 | 0.0 | 0.0 | 0.00 | 0.00 | 0.00 | 98 | 1013.0 |
| 20260507081234 | 23 | 124 | 0.0 | 1.6 | 0.00 | 0.00 | 0.00 | 97 | 1012.0 |
| 20260507080733 | 23 | 181 | 0.0 | 3.2 | 0.00 | 0.00 | 0.00 | 97 | 1012.0 |
| 20260507080233 | 24 | 244 | 0.0 | 0.0 | 0.00 | 0.00 | 0.00 | 98 | 1012.0 |
| 20260507075733 | 24 | 203 | 0.0 | 0.0 | 0.00 | 0.00 | 0.00 | 98 | 1012.0 |
| 20260507075233 | 24 | 154 | 0.0 | 0.0 | 0.00 | 0.00 | 0.00 | 97 | 1013.0 |
| 20260507074734 | 24 | 30 | 0.0 | 0.0 | 0.00 | 0.00 | 0.00 | 98 | 1013.0 |
| 20260507074233 | 24 | 278 | 0.0 | 3.2 | 0.00 | 0.00 | 0.00 | 98 | 1013.0 |
| 20260507073734 | 24 | 156 | 0.0 | 0.0 | 0.00 | 0.00 | 0.00 | 97 | 1013.0 |
| 20260507073234 | 24 | 125 | 0.0 | 1.6 | 0.00 | 0.00 | 0.00 | 98 | 1013.0 |
| 20260507072733 | 23 | 135 | 0.0 | 3.2 | 0.00 | 0.00 | 0.00 | 97 | 1013.0 |
| 20260507072234 | 23 | 156 | 0.0 | 3.2 | 0.00 | 0.00 | 0.00 | 97 | 1013.0 |
| 20260507071734 | 23 | 174 | 0.0 | 3.2 | 0.00 | 0.00 | 0.00 | 97 | 1013.0 |
| 20260507071234 | 23 | 113 | 1.6 | 4.8 | 0.00 | 0.00 | 0.00 | 97 | 1013.0 |
| 20260507070734 | 23 | 129 | 1.6 | 3.2 | 0.00 | 0.00 | 0.00 | 97 | 1013.0 |
| 20260507070233 | 24 | 127 | 0.0 | 3.2 | 0.00 | 0.00 | 0.00 | 97 | 1013.0 |
| 20260507065733 | 24 | 142 | 0.0 | 0.0 | 0.00 | 0.00 | 0.00 | 97 | 1013.0 |
| 20260507065234 | 24 | 121 | 0.0 | 0.0 | 0.00 | 0.00 | 0.00 | 97 | 1013.0 |
| 20260507064733 | 24 | 319 | 0.0 | 1.6 | 0.00 | 0.00 | 0.00 | 97 | 1013.0 |
| 20260507064234 | 24 | 162 | 0.0 | 0.0 | 0.00 | 0.00 | 0.00 | 97 | 1013.0 |
| 20260507063733 | 24 | 109 | 0.0 | 0.0 | 0.00 | 0.00 | 0.00 | 97 | 1013.0 |
| 20260507063236 | 24 | 315 | 0.0 | 1.6 | 0.00 | 0.00 | 0.00 | 97 | 1013.0 |
| 20260507062734 | 24 | 128 | 0.0 | 0.0 | 0.00 | 0.00 | 0.00 | 97 | 1013.0 |
| 20260507062234 | 24 | 58 | 0.0 | 0.0 | 0.00 | 0.00 | 0.00 | 97 | 1014.0 |
| 20260507061734 | 24 | 77 | 0.0 | 1.6 | 0.00 | 0.00 | 0.00 | 97 | 1013.0 |
| 20260507061234 | 24 | 86 | 0.0 | 0.0 | 0.00 | 0.00 | 0.00 | 97 | 1014.0 |
| 20260507060733 | 25 | 152 | 0.0 | 0.0 | 0.00 | 0.00 | 0.00 | 96 | 1014.0 |
| 20260507060233 | 25 | 238 | 0.0 | 0.0 | 0.00 | 0.00 | 0.00 | 97 | 1014.0 |
| 20260507055734 | 25 | 220 | 0.0 | 0.0 | 0.00 | 0.00 | 0.00 | 97 | 1014.0 |
| 20260507055237 | 25 | 149 | 0.0 | 0.0 | 0.00 | 0.00 | 0.00 | 97 | 1014.0 |
| 20260507054735 | 25 | 135 | 0.0 | 1.6 | 0.00 | 0.00 | 0.00 | 97 | 1014.0 |
| 20260507054233 | 25 | 224 | 0.0 | 0.0 | 0.00 | 0.00 | 0.00 | 97 | 1014.0 |
| 20260507053733 | 25 | 311 | 0.0 | 0.0 | 0.00 | 0.00 | 0.00 | 97 | 1014.0 |
| 20260507053234 | 25 | 132 | 0.0 | 1.6 | 0.00 | 0.00 | 0.00 | 97 | 1014.0 |
| 20260507052733 | 25 | 68 | 0.0 | 1.6 | 0.00 | 0.00 | 0.00 | 97 | 1014.0 |
| 20260507052233 | 25 | 68 | 0.0 | 1.6 | 0.00 | 0.00 | 0.00 | 97 | 1014.0 |
| 20260507051733 | 25 | 130 | 0.0 | 0.0 | 0.00 | 0.00 | 0.00 | 97 | 1015.0 |
| 20260507051233 | 25 | 40 | 0.0 | 1.6 | 0.00 | 0.00 | 0.00 | 97 | 1014.0 |
| 20260507050734 | 24 | 113 | 0.0 | 0.0 | 0.00 | 0.00 | 0.00 | 97 | 1015.0 |
| 20260507050234 | 24 | 51 | 0.0 | 0.0 | 0.00 | 0.00 | 0.00 | 97 | 1015.0 |
| 20260507045733 | 24 | 125 | 0.0 | 0.0 | 0.00 | 0.00 | 3.00 | 96 | 1015.0 |
| 20260507045234 | 24 | 162 | 0.0 | 3.2 | 0.00 | 0.00 | 3.00 | 96 | 1015.0 |
| 20260507044733 | 24 | 150 | 1.6 | 3.2 | 0.00 | 0.00 | 3.00 | 96 | 1015.0 |
| 20260507044234 | 24 | 152 | 0.0 | 0.0 | 0.00 | 0.00 | 3.00 | 96 | 1015.0 |
| 20260507043735 | 24 | 135 | 0.0 | 1.6 | 0.00 | 0.00 | 3.00 | 96 | 1015.0 |
| 20260507043233 | 25 | 135 | 0.0 | 3.2 | 0.00 | 0.00 | 3.00 | 95 | 1015.0 |
| 20260507042734 | 25 | 138 | 0.0 | 1.6 | 0.00 | 0.00 | 3.00 | 96 | 1015.0 |
| 20260507042233 | 25 | 217 | 0.0 | 0.0 | 0.00 | 0.00 | 3.00 | 96 | 1015.0 |
| 20260507041733 | 25 | 141 | 1.6 | 3.2 | 0.00 | 0.00 | 3.00 | 96 | 1015.0 |
| 20260507041233 | 25 | 280 | 0.0 | 1.6 | 0.00 | 0.00 | 3.00 | 95 | 1015.0 |
| 20260507040733 | 25 | 127 | 0.0 | 0.0 | 0.00 | 0.00 | 3.00 | 95 | 1015.0 |
| 20260507040233 | 25 | 159 | 0.0 | 1.6 | 0.00 | 0.00 | 3.00 | 95 | 1015.0 |
| 20260507035734 | 25 | 289 | 0.0 | 1.6 | 0.00 | 0.00 | 3.00 | 95 | 1015.0 |
| 20260507035234 | 25 | 32 | 0.0 | 1.6 | 0.00 | 0.00 | 3.00 | 95 | 1015.0 |
| 20260507034734 | 25 | 114 | 0.0 | 0.0 | 0.00 | 0.00 | 3.00 | 95 | 1015.0 |
| 20260507034233 | 25 | 197 | 0.0 | 0.0 | 0.00 | 0.00 | 3.00 | 95 | 1015.0 |
| 20260507033733 | 25 | 60 | 0.0 | 0.0 | 0.00 | 0.00 | 3.00 | 95 | 1015.0 |
| 20260507033234 | 25 | 37 | 0.0 | 0.0 | 0.00 | 0.00 | 3.00 | 95 | 1015.0 |
| 20260507032734 | 25 | 249 | 0.0 | 1.6 | 0.00 | 0.00 | 3.00 | 96 | 1015.0 |
| 20260507032234 | 25 | 297 | 0.0 | 1.6 | 0.00 | 0.00 | 3.00 | 96 | 1015.0 |
| 20260507031735 | 25 | 246 | 0.0 | 1.6 | 0.00 | 0.00 | 3.00 | 96 | 1015.0 |
| 20260507031233 | 25 | 298 | 0.0 | 3.2 | 0.00 | 0.00 | 3.00 | 96 | 1015.0 |
| 20260507030734 | 25 | 250 | 0.0 | 1.6 | 0.00 | 0.00 | 3.00 | 96 | 1015.0 |
| 20260507030233 | 25 | 123 | 0.0 | 1.6 | 0.00 | 0.00 | 3.00 | 96 | 1015.0 |
| 20260507025733 | 25 | 132 | 0.0 | 0.0 | 0.00 | 0.00 | 3.00 | 95 | 1015.0 |
| 20260507025234 | 25 | 132 | 0.0 | 1.6 | 0.00 | 0.00 | 3.00 | 96 | 1015.0 |
| 20260507024734 | 25 | 148 | 0.0 | 1.6 | 0.00 | 0.00 | 3.00 | 95 | 1015.0 |
| 20260507024234 | 25 | 283 | 0.0 | 0.0 | 0.00 | 0.00 | 3.00 | 95 | 1015.0 |
| 20260507023739 | 25 | 242 | 0.0 | 1.6 | 0.00 | 0.00 | 3.00 | 95 | 1015.0 |
| 20260507023233 | 25 | 251 | 0.0 | 0.0 | 0.00 | 0.00 | 3.00 | 95 | 1015.0 |
| 20260507022734 | 25 | 135 | 0.0 | 1.6 | 0.00 | 0.00 | 3.00 | 95 | 1015.0 |
| 20260507022233 | 25 | 131 | 0.0 | 0.0 | 0.00 | 0.00 | 3.00 | 96 | 1015.0 |
| 20260507021734 | 25 | 231 | 0.0 | 0.0 | 0.00 | 0.00 | 3.00 | 95 | 1015.0 |
| 20260507021234 | 25 | 98 | 0.0 | 0.0 | 0.00 | 0.00 | 3.00 | 96 | 1014.0 |
| 20260507020733 | 25 | 152 | 0.0 | 0.0 | 0.00 | 0.00 | 3.00 | 96 | 1015.0 |
| 20260507020234 | 25 | 203 | 0.0 | 0.0 | 0.00 | 0.00 | 3.00 | 95 | 1014.0 |
| 20260507015733 | 25 | 150 | 0.0 | 4.8 | 0.00 | 0.00 | 3.00 | 95 | 1014.0 |
| 20260507015233 | 25 | 182 | 3.2 | 3.2 | 0.00 | 0.00 | 3.00 | 95 | 1014.0 |
| 20260507014734 | 25 | 182 | 0.0 | 1.6 | 0.00 | 0.00 | 3.00 | 95 | 1014.0 |
| 20260507014233 | 25 | 132 | 0.0 | 1.6 | 0.00 | 0.00 | 3.00 | 94 | 1014.0 |
| 20260507013739 | 25 | 224 | 0.0 | 0.0 | 0.00 | 0.00 | 3.00 | 94 | 1014.0 |
| 20260507013233 | 25 | 144 | 0.0 | 1.6 | 0.00 | 0.00 | 3.00 | 94 | 1014.0 |
| 20260507012733 | 25 | 143 | 0.0 | 3.2 | 0.00 | 0.00 | 3.00 | 94 | 1014.0 |
| 20260507012233 | 25 | 122 | 1.6 | 3.2 | 0.00 | 0.00 | 3.00 | 93 | 1014.0 |
| 20260507011734 | 25 | 125 | 0.0 | 3.2 | 0.00 | 0.00 | 3.00 | 93 | 1013.0 |
| 20260507011234 | 25 | 148 | 1.6 | 3.2 | 0.00 | 0.00 | 3.00 | 93 | 1014.0 |
| 20260507010733 | 25 | 108 | 0.0 | 1.6 | 0.00 | 0.00 | 3.00 | 93 | 1013.0 |
| 20260507010233 | 25 | 130 | 0.0 | 4.8 | 0.00 | 0.00 | 3.00 | 92 | 1013.0 |
| 20260507005733 | 25 | 141 | 0.0 | 3.2 | 0.00 | 0.00 | 3.00 | 92 | 1013.0 |
| 20260507005234 | 25 | 135 | 0.0 | 1.6 | 0.00 | 0.00 | 3.00 | 92 | 1013.0 |
| 20260507004733 | 26 | 154 | 0.0 | 1.6 | 0.00 | 0.00 | 3.00 | 92 | 1013.0 |
| 20260507004233 | 26 | 164 | 0.0 | 0.0 | 0.00 | 0.00 | 3.00 | 92 | 1013.0 |
| 20260507003734 | 26 | 207 | 0.0 | 1.6 | 0.00 | 0.00 | 3.00 | 92 | 1013.0 |
| 20260507003233 | 26 | 139 | 0.0 | 1.6 | 0.00 | 0.00 | 3.00 | 92 | 1012.0 |
| 20260507002734 | 26 | 132 | 0.0 | 1.6 | 0.00 | 0.00 | 3.00 | 92 | 1012.0 |
| 20260507002234 | 26 | 158 | 0.0 | 0.0 | 0.00 | 0.00 | 3.00 | 92 | 1013.0 |
| 20260507001733 | 26 | 269 | 0.0 | 1.6 | 0.00 | 0.00 | 3.00 | 92 | 1012.0 |
| 20260507001234 | 26 | 234 | 0.0 | 1.6 | 0.00 | 0.00 | 3.00 | 92 | 1012.0 |
| 20260507000734 | 26 | 302 | 0.0 | 0.0 | 0.00 | 0.00 | 3.00 | 92 | 1012.0 |
| 20260507000234 | 26 | 291 | 0.0 | 3.2 | 0.00 | 0.00 | 3.00 | 92 | 1012.0 |
| 20260506235733 | 26 | 181 | 0.0 | 0.0 | 0.00 | 0.00 | 3.00 | 91 | 1012.0 |
| 20260506235234 | 26 | 163 | 0.0 | 1.6 | 0.00 | 0.00 | 3.00 | 91 | 1012.0 |
| 20260506234733 | 26 | 200 | 0.0 | 0.0 | 0.00 | 0.00 | 3.00 | 91 | 1012.0 |
| 20260506234234 | 26 | 200 | 0.0 | 0.0 | 0.00 | 0.00 | 3.00 | 91 | 1012.0 |
| 20260506233733 | 26 | 200 | 0.0 | 8.0 | 0.00 | 0.00 | 3.00 | 90 | 1012.0 |
| 20260506233233 | 26 | 200 | 8.0 | 8.0 | 0.00 | 0.00 | 3.00 | 90 | 1012.0 |
| 20260506232733 | 26 | 200 | 8.0 | 8.0 | 0.00 | 0.00 | 3.00 | 89 | 1012.0 |
| 20260506232234 | 26 | 200 | 8.0 | 8.0 | 0.00 | 0.00 | 3.00 | 89 | 1012.0 |
| 20260506231734 | 26 | 200 | 8.0 | 8.0 | 0.00 | 0.00 | 3.00 | 89 | 1012.0 |
| 20260506231233 | 26 | 200 | 8.0 | 8.0 | 0.00 | 0.00 | 3.00 | 89 | 1012.0 |
| 20260506230733 | 26 | 200 | 8.0 | 8.0 | 0.00 | 0.00 | 3.00 | 88 | 1012.0 |
| 20260506230233 | 27 | 200 | 8.0 | 8.0 | 0.00 | 0.00 | 3.00 | 87 | 1012.0 |
| 20260506225734 | 27 | 200 | 8.0 | 8.0 | 0.00 | 0.00 | 3.00 | 87 | 1011.0 |
| 20260506225233 | 27 | 200 | 8.0 | 8.0 | 0.00 | 0.00 | 3.00 | 86 | 1011.0 |
| 20260506224733 | 27 | 200 | 8.0 | 8.0 | 0.00 | 0.00 | 3.00 | 85 | 1011.0 |
| 20260506224235 | 28 | 200 | 8.0 | 8.0 | 0.00 | 0.00 | 3.00 | 84 | 1011.0 |
| 20260506223733 | 28 | 200 | 8.0 | 8.0 | 0.00 | 0.00 | 3.00 | 83 | 1011.0 |
| 20260506223234 | 28 | 200 | 8.0 | 8.0 | 0.00 | 0.00 | 3.00 | 83 | 1011.0 |
| 20260506222733 | 28 | 200 | 8.0 | 8.0 | 0.00 | 0.00 | 3.00 | 83 | 1010.0 |
| 20260506222234 | 28 | 200 | 8.0 | 8.0 | 0.00 | 0.00 | 3.00 | 83 | 1011.0 |
| 20260506221733 | 28 | 200 | 8.0 | 8.0 | 0.00 | 0.00 | 3.00 | 83 | 1010.0 |
| 20260506221233 | 28 | 200 | 8.0 | 8.0 | 0.00 | 0.00 | 3.00 | 83 | 1010.0 |
| 20260506220733 | 28 | 200 | 8.0 | 8.0 | 0.00 | 0.00 | 3.00 | 84 | 1010.0 |
| 20260506220234 | 28 | 200 | 8.0 | 8.0 | 0.00 | 0.00 | 3.00 | 84 | 1010.0 |
| 20260506215733 | 28 | 200 | 8.0 | 8.0 | 0.00 | 0.00 | 3.00 | 84 | 1011.0 |
| 20260506215234 | 28 | 200 | 8.0 | 8.0 | 0.00 | 0.00 | 3.00 | 84 | 1011.0 |
| 20260506214735 | 28 | 200 | 8.0 | 8.0 | 0.00 | 0.00 | 3.00 | 84 | 1011.0 |
| 20260506214233 | 28 | 200 | 8.0 | 8.0 | 0.00 | 0.00 | 3.00 | 84 | 1010.0 |
| 20260506213235 | 28 | 200 | 8.0 | 8.0 | 0.00 | 0.00 | 3.00 | 84 | 1010.0 |
| 20260506212734 | 28 | 200 | 8.0 | 8.0 | 0.00 | 0.00 | 3.00 | 84 | 1010.0 |
| 20260506212234 | 28 | 200 | 8.0 | 8.0 | 0.00 | 0.00 | 3.00 | 84 | 1010.0 |
| 20260506211733 | 28 | 200 | 8.0 | 8.0 | 0.00 | 0.00 | 3.00 | 83 | 1010.0 |
| 20260506211234 | 28 | 200 | 8.0 | 8.0 | 0.00 | 0.00 | 3.00 | 83 | 1010.0 |
| 20260506210734 | 28 | 200 | 8.0 | 8.0 | 0.00 | 0.00 | 3.00 | 84 | 1011.0 |
| 20260506210234 | 28 | 200 | 8.0 | 8.0 | 0.00 | 0.00 | 3.00 | 83 | 1010.0 |
| 20260506205733 | 28 | 200 | 8.0 | 8.0 | 0.00 | 0.00 | 3.00 | 83 | 1011.0 |
| 20260506203233 | 28 | 200 | 8.0 | 8.0 | 0.00 | 0.00 | 3.00 | 82 | 1010.0 |